Aviation Digital Data Service (ADDS)

Output produced by METARs form (1001 UTC 16 July 2019)
found at http://www.aviationweather.gov/metar/data/
 
CYYZ 160900Z 14002KT 15SM SCT120 19/16 A2996 RMK AC4 SLP144 DENSITY ALT 1200FT
CYYZ 160800Z 00000KT 15SM BKN120 19/16 A2996 RMK AC6 SLP145 DENSITY ALT 1200FT
TAF CYYZ 160838Z 1609/1712 VRB03KT P6SM SCT120 
     PROB30 1609/1612 16005KT 1SM BR BKN003 
     FM161200 22006KT P6SM FEW008 
     PROB30 1612/1614 BKN008 
     FM161400 25012G22KT P6SM FEW020 FEW150 
     FM161700 25015G27KT P6SM SCT060 
     TEMPO 1617/1619 BKN060 
     FM161900 25015G27KT P6SM -SHRA BKN040 BKN090 
     FM162200 25012G22KT P6SM -SHRA BKN020 OVC050 
     FM170600 24008KT 6SM -SHRA BR SCT008 OVC020 
     PROB30 1706/1710 VRB15G25KT 2SM TSRA BR BKN008 OVC020CB RMK NXT FCST BY
161200Z
       
CYKF 160900Z AUTO 14003KT 9SM CLR 18/17 A2998 RMK SLP150 DENSITY ALT 1500FT
CYKF 160800Z AUTO VRB02KT 9SM CLR 18/16 A2998 RMK SLP148 DENSITY ALT 1500FT
TAF CYKF 160738Z 1608/1620 VRB03KT P6SM SCT150 
     TEMPO 1608/1613 4SM BR 
     PROB30 1608/1613 2SM BR BKN006 
     FM161400 25012G22KT P6SM FEW020 FEW080 
     FM161600 25015G25KT P6SM BKN060 
     FM161800 24015G25KT P6SM -SHRA BKN030 BKN060 
     PROB30 1618/1620 VRB15G30KT 2SM TSRA BR BKN020 OVC060CB RMK FCST BASED ON
AUTO OBS. NXT FCST BY 161400Z
       
CYBN 160900Z AUTO 13005KT 9SM FEW068 18/17 A2993 RMK SLP133
CYBN 160800Z AUTO 17006KT 9SM CLR 18/17 A2993 RMK SLP134
TAF CYBN 152330Z 1600/1612 21006KT P6SM SCT090 BKN150 
     FM160200 VRB03KT 6SM -SHRA BR SCT040 OVC090 
     TEMPO 1602/1608 5SM -SHRA BR SCT020 OVC040 
     FM160800 VRB03KT P6SM FEW020 BKN050 RMK FCST BASED ON AUTO OBS. NXT FCST BY
160600Z
       
CYXU 160900Z 24005KT 15SM FEW150 21/20 A2999 RMK AC2 SLP153 DENSITY ALT 1800FT
CYXU 160800Z 21004KT 15SM SKC 19/18 A2998 RMK SLP151 DENSITY ALT 1600FT
TAF CYXU 160538Z 1606/1706 18005KT P6SM FEW080 SCT150 
     PROB30 1608/1612 11/2SM BR 
     FM161400 24012G22KT P6SM FEW030 BKN090 
     FM161600 25015G25KT P6SM SCT020 BKN040 OVC080 
     TEMPO 1616/1622 5SM -SHRA BR BKN020 OVC040 
     FM162200 23010KT P6SM -SHRA BKN030 BKN070 
     PROB30 1622/1705 VRB15G30KT 2SM TSRA BR BKN008 OVC030CB 
     FM170500 20006KT 3SM -SHRA BR BKN006 OVC025 RMK NXT FCST BY 161200Z
       
CYHM 160900Z 21005KT 15SM FEW090 SCT160 BKN250 19/18 A2998 RMK AC1AC3CI1 SLP152 DENSITY ALT 1400FT
CYHM 160800Z 20005KT 15SM FEW110 FEW140 BKN160 20/16 A2997 RMK AC1AC1AC5 SLP148 DENSITY ALT 1500FT
TAF CYHM 160538Z 1606/1706 19008KT P6SM SCT070 BKN160 
     TEMPO 1606/1607 P6SM -SHRA BKN070 BKN140 
     FM160700 20008KT P6SM FEW060 SCT140 
     PROB30 1610/1614 5SM BR BKN006 
     FM161400 24010G20KT P6SM FEW100 
     FM161600 24015G25KT P6SM BKN060 BKN120 
     TEMPO 1616/1621 P6SM -SHRA 
     PROB30 1618/1621 VRB15G30KT 2SM TSRA BR BKN020 OVC060CB 
     FM162100 24018G28KT 5SM -SHRA BR BKN020 OVC050 
     BECMG 1622/1624 24012G22KT 
     FM170400 23008KT 5SM -SHRA BR BKN008 OVC030 
     PROB30 1704/1706 VRB15G25KT 2SM TSRA BR BKN006 OVC030CB RMK NXT FCST BY
161200Z
       
CYQA 160930Z AUTO 15006KT 9SM FEW045 BKN065 BKN086 OVC170 18/17 A2992 RMK SLP131 DENSITY ALT 1400FT
CYQA 160900Z AUTO 16006KT 140V200 6SM -RA BR SCT005 BKN055 BKN071 OVC120 18/17 A2993 RMK SLP134 DENSITY ALT 1400FT
CYQA 160853Z AUTO 18006KT 7SM -RA SCT005 BKN046 OVC070 18/17 A2993 RMK SLP135 DENSITY ALT 1400FT
CYQA 160852Z AUTO 17007KT 8SM -RA BKN005 BKN046 OVC070 18/17 A2993 RMK SLP135 DENSITY ALT 1400FT
CYQA 160844Z AUTO 16006KT 9SM BKN005 BKN048 OVC065 18/17 A2993 RMK SLP135 DENSITY ALT 1400FT
CYQA 160843Z AUTO 16005KT 9SM SCT005 BKN048 OVC065 18/17 A2993 RMK SLP135 DENSITY ALT 1400FT
CYQA 160837Z AUTO 15007KT 8SM -RA SCT005 BKN048 OVC065 18/17 A2993 RMK SLP135 DENSITY ALT 1400FT
CYQA 160835Z AUTO 15008KT 6SM -RA BR BKN005 BKN048 OVC060 18/17 A2993 RMK SLP136 DENSITY ALT 1400FT
CYQA 160830Z AUTO 16007KT 5SM RA BR BKN005 BKN034 OVC048 18/17 A2993 RMK SLP136 DENSITY ALT 1400FT
CYQA 160822Z AUTO 15006KT 6SM -RA BR BKN005 BKN036 OVC048 18/17 A2993 RMK SLP136 DENSITY ALT 1400FT
CYQA 160814Z AUTO 17008KT 7SM -RA SCT005 BKN036 OVC048 18/17 A2993 RMK SLP136 DENSITY ALT 1400FT
CYQA 160813Z AUTO 17009KT 8SM SCT005 BKN036 OVC048 18/17 A2993 RMK SLP136 DENSITY ALT 1400FT
CYQA 160807Z AUTO 16008KT 9SM -RA SCT005 BKN038 OVC048 18/17 A2993 RMK SLP136 DENSITY ALT 1400FT
CYQA 160800Z AUTO 17008KT 8SM -RA BKN005 BKN038 OVC046 18/17 A2994 RMK SLP138 DENSITY ALT 1400FT
CYQA 160759Z AUTO 17008KT 8SM -RA BKN005 BKN038 OVC044 18/17 A2994 RMK SLP138 DENSITY ALT 1400FT
CYQA 160750Z AUTO 16008KT 6SM -RA BR SCT005 BKN036 OVC044 18/17 A2994 RMK SLP138 DENSITY ALT 1400FT
CYQA 160728Z AUTO 17011G16KT 4SM RA BR FEW005 SCT015 BKN031 OVC039 18/17 A2995 RMK SLP140 DENSITY ALT 1400FT
CYQA 160724Z AUTO 16011KT 3SM RA BR SCT015 BKN024 BKN031 OVC039 18/17 A2995 RMK SLP140 DENSITY ALT 1400FT
CYQA 160717Z AUTO 18008KT 3SM +RA BR BKN015 BKN024 OVC033 18/17 A2995 RMK SLP142 DENSITY ALT 1400FT
CYQA 160715Z AUTO 18008KT 4SM RA BR BKN015 BKN024 OVC036 18/17 A2996 RMK SLP143 DENSITY ALT 1400FT
CYVV 160900Z 23009KT 15SM FEW050 FEW090 SCT150 BKN250 23/20 A2988 RMK SC1AC1AC2CI2 WND ESTD SLP118 DENSITY ALT 1900FT
CYVV 160800Z 14009KT 15SM SCT050 BKN140 BKN250 21/19 A2989 RMK SC3AC2CS2 WND ESTD SLP122 DENSITY ALT 1700FT
CYZR 160900Z AUTO 17005KT 9SM CLR 21/20 A2997 RMK SLP146 DENSITY ALT 1400FT
CYZR 160800Z AUTO 20005KT 9SM CLR 22/20 A2996 RMK SLP142 DENSITY ALT 1400FT
TAF CYZR 160738Z 1608/1620 20005KT P6SM FEW150 
     TEMPO 1608/1613 5SM BR 
     PROB40 1608/1613 1SM BR 
     FM161400 23012G22KT P6SM SCT030 BKN060 BKN140 
     TEMPO 1614/1617 P6SM -SHRA BKN030 OVC060 
     FM161700 22015G25KT P6SM BKN040 OVC100 
     TEMPO 1617/1620 4SM -SHRA BR BKN015 OVC040 
     PROB30 1617/1620 VRB15G30KT 11/2SM +TSRA BR BKN007 OVC040CB RMK FCST BASED
ON AUTO OBS. NXT FCST BY 161400Z
       
CYTZ 160900Z AUTO 09004KT 9SM BKN160 19/16 A2995 RMK SLP145 DENSITY ALT 600FT
CYTZ 160800Z AUTO 00000KT 9SM BKN140 OVC160 18/16 A2996 RMK SLP146 DENSITY ALT 600FT
CYTZ 160707Z AUTO 00000KT 9SM FEW065 SCT083 SCT100 BKN140 19/16 A2996 RMK SLP148 DENSITY ALT 600FT
TAF CYTZ 160738Z 1608/1708 VRB03KT P6SM SCT020 BKN140 
     TEMPO 1608/1612 5SM BR BKN020 OVC140 
     PROB30 1608/1612 1SM BR BKN003 OVC020 
     FM161200 23008KT P6SM SCT008 
     PROB30 1612/1614 BKN008 
     FM161400 23010G20KT P6SM FEW060 FEW150 
     FM161700 24015G25KT P6SM BKN060 
     FM161900 25015G28KT P6SM -SHRA BKN040 BKN090 
     FM162200 25012G22KT P6SM -SHRA BKN020 OVC050 
     FM170600 24008KT 6SM -SHRA BR SCT008 OVC020 
     PROB30 1706/1708 VRB15G25KT 2SM TSRA BR BKN008 OVC020CB RMK FCST BASED ON
AUTO OBS. NXT FCST BY 161400Z
       
CWLS 160900Z AUTO 20006KT 20/16 RMK AO1 SLP143 T01990163 56010
CWLS 160800Z AUTO 20008KT 20/15 RMK AO1 SLP143 T02000153 58011
CWCO 160900Z AUTO 23007KT 23/18 RMK AO1 SLP115 T02290175 56015
CWCO 160800Z AUTO 20002KT 20/18 RMK AO1 SLP121 T01950182 56022